River Falls, Wisconsin
Current Conditions -  °F | °C
As of 10:51 AM on Saturday 22 Nov 2014 (Local Time) from K21D Reporting Station
Haze Haze  
Wind Chill: 25°   Ceiling: 400
Heat Index: 34°   Visibility: 3mi
Dew Point: 34°   Wind: 12mph
Humidity: 100%   Direction: 190°S
Pressure: 29.75"   Gusts: NA
Location:  44.85°N, 92.63°W
Report Text: K21D 221651Z AUTO 19010KT 3SM BR OVC004 01/01 A2975 RMK AO2
Loading
Personal Weather Stations






























Interactive Weather Map New forecast layout! Learn more

10-Day Weather Forecast

Advertisements
Track Severe Weather on mobile